Time;durP1;ratioP1;P1;durP2;ratioP2;P2;SDS_P1;SDS_P2;PMS_P1;PMS_P2;Temp;Humidity;BMP_temperature;BMP_pressure;BME280_temperature;BME280_humidity;BME280_pressure;Samples;Min_cycle;Max_cycle;Signal;HPM_P1;HPM_P2
2022/09/04 00:01:38;;;;;;;15.23;9.45;;;;;;;;;;8201684;29;20074;-86
2022/09/04 00:05:48;;;;;;;14.88;8.55;;;;;;;;;;8201612;29;20043;-86
2022/09/04 00:10:03;;;;;;;13.85;8.00;;;;;;;;;;8201517;29;20483;-85
2022/09/04 00:14:10;;;;;;;14.05;8.43;;;;;;;;;;8201912;29;20513;-86
2022/09/04 00:18:17;;;;;;;14.10;7.10;;;;;;;;;;8201224;29;20055;-85
2022/09/04 00:22:30;;;;;;;10.95;7.28;;;;;;;;;;8195559;29;20110;-86
2022/09/04 00:26:44;;;;;;;14.10;7.75;;;;;;;;;;8179342;29;20146;-85
2022/09/04 00:30:54;;;;;;;11.50;7.32;;;;;;;;;;8200065;28;20039;-85
2022/09/04 00:35:05;;;;;;;12.13;8.00;;;;;;;;;;8200827;29;20208;-86
2022/09/04 00:39:12;;;;;;;11.63;6.73;;;;;;;;;;8198163;29;20055;-85
2022/09/04 00:43:36;;;;;;;12.25;7.53;;;;;;;;;;8200611;29;20071;-85
2022/09/04 00:48:16;;;;;;;10.13;6.63;;;;;;;;;;8194217;29;20043;-85
2022/09/04 00:52:33;;;;;;;9.23;6.18;;;;;;;;;;8158785;29;20567;-85
2022/09/04 00:57:21;;;;;;;11.18;6.10;;;;;;;;;;8200273;29;20039;-85
2022/09/04 01:01:27;;;;;;;11.10;7.05;;;;;;;;;;8200215;29;20127;-85
2022/09/04 01:05:44;;;;;;;15.88;9.07;;;;;;;;;;8199972;29;20062;-85
2022/09/04 01:10:19;;;;;;;14.15;8.63;;;;;;;;;;8193814;29;20040;-86
2022/09/04 01:14:28;;;;;;;14.45;9.32;;;;;;;;;;8172256;29;20426;-85
2022/09/04 01:18:38;;;;;;;14.77;8.38;;;;;;;;;;8199729;29;20051;-86
2022/09/04 01:23:07;;;;;;;17.77;9.00;;;;;;;;;;8199832;29;20055;-85
2022/09/04 01:27:19;;;;;;;14.02;9.13;;;;;;;;;;8199532;29;20047;-85
2022/09/04 01:31:31;;;;;;;15.40;9.20;;;;;;;;;;8199673;29;20051;-85
2022/09/04 01:35:41;;;;;;;12.60;7.57;;;;;;;;;;8199520;29;20063;-85
2022/09/04 01:39:49;;;;;;;14.55;8.35;;;;;;;;;;8199418;29;20118;-85
2022/09/04 01:43:53;;;;;;;14.13;8.63;;;;;;;;;;8204629;28;20050;-86
2022/09/04 01:47:59;;;;;;;15.35;8.50;;;;;;;;;;8205703;29;20044;-86
2022/09/04 01:52:11;;;;;;;14.10;7.97;;;;;;;;;;8205692;29;20063;-86
2022/09/04 01:56:20;;;;;;;13.80;8.02;;;;;;;;;;8199285;29;20047;-85
2022/09/04 02:00:26;;;;;;;12.30;7.88;;;;;;;;;;8205422;29;20522;-86
2022/09/04 02:04:39;;;;;;;13.93;7.80;;;;;;;;;;8194103;29;20043;-85
2022/09/04 02:09:01;;;;;;;11.00;6.95;;;;;;;;;;8200256;29;20463;-88
2022/09/04 02:13:16;;;;;;;12.50;7.30;;;;;;;;;;8202546;29;20050;-86
2022/09/04 02:17:30;;;;;;;11.68;7.45;;;;;;;;;;8196668;29;20058;-86
2022/09/04 02:21:37;;;;;;;14.25;7.53;;;;;;;;;;8196868;29;20050;-86
2022/09/04 02:25:48;;;;;;;11.23;7.20;;;;;;;;;;8188873;29;20047;-86
2022/09/04 02:29:58;;;;;;;11.90;7.00;;;;;;;;;;8199893;29;20106;-86
2022/09/04 02:34:08;;;;;;;8.57;6.57;;;;;;;;;;8198917;29;20039;-86
2022/09/04 02:38:20;;;;;;;10.82;7.10;;;;;;;;;;8189588;29;20118;-86
2022/09/04 02:42:31;;;;;;;12.45;7.57;;;;;;;;;;8194539;29;20043;-86
2022/09/04 02:46:44;;;;;;;12.53;6.83;;;;;;;;;;8202804;29;20046;-87
2022/09/04 02:51:01;;;;;;;11.15;6.78;;;;;;;;;;8195879;29;20074;-86
2022/09/04 02:55:17;;;;;;;9.50;6.45;;;;;;;;;;8190494;28;20050;-88
2022/09/04 02:59:35;;;;;;;10.48;6.30;;;;;;;;;;8184937;29;20118;-89
2022/09/04 03:03:43;;;;;;;10.52;6.63;;;;;;;;;;8198450;29;20078;-87
2022/09/04 03:07:54;;;;;;;9.65;6.13;;;;;;;;;;8193165;29;20118;-87
2022/09/04 03:12:02;;;;;;;9.03;5.80;;;;;;;;;;8196515;29;20047;-87
2022/09/04 03:16:14;;;;;;;8.43;5.53;;;;;;;;;;8183212;29;20490;-87
2022/09/04 03:20:21;;;;;;;8.30;5.13;;;;;;;;;;8182547;29;20044;-86
2022/09/04 03:24:32;;;;;;;9.93;5.85;;;;;;;;;;8201802;29;20039;-86
2022/09/04 03:28:44;;;;;;;9.50;5.38;;;;;;;;;;8202816;29;20046;-86
2022/09/04 03:32:53;;;;;;;10.10;5.00;;;;;;;;;;8202562;29;20122;-86
2022/09/04 03:37:10;;;;;;;8.48;5.95;;;;;;;;;;8202316;29;20043;-85
2022/09/04 03:41:28;;;;;;;8.57;5.68;;;;;;;;;;8202191;29;20126;-86
2022/09/04 03:45:39;;;;;;;7.57;5.47;;;;;;;;;;8196520;29;20051;-85
2022/09/04 03:49:55;;;;;;;8.27;4.75;;;;;;;;;;8199840;29;20047;-85
2022/09/04 03:54:10;;;;;;;9.43;5.53;;;;;;;;;;8201992;29;20047;-85
2022/09/04 03:58:21;;;;;;;12.00;5.55;;;;;;;;;;8201400;29;20058;-85
2022/09/04 04:02:37;;;;;;;8.57;5.68;;;;;;;;;;8201773;29;20055;-86
2022/09/04 04:06:46;;;;;;;7.28;4.50;;;;;;;;;;8184299;29;20528;-86
2022/09/04 04:10:59;;;;;;;7.00;4.82;;;;;;;;;;8201530;29;20117;-86
2022/09/04 04:15:07;;;;;;;;;;;;;;;;;;8201708;29;20275;-85
2022/09/04 04:19:26;;;;;;;7.32;4.63;;;;;;;;;;8195956;29;19923;-85
2022/09/04 04:23:50;;;;;;;7.88;5.00;;;;;;;;;;8200953;29;20053;-85
2022/09/04 04:28:03;;;;;;;9.23;5.15;;;;;;;;;;8201038;29;20054;-85
2022/09/04 04:32:24;;;;;;;7.28;4.93;;;;;;;;;;8200847;29;20063;-85
2022/09/04 04:36:33;;;;;;;11.95;5.80;;;;;;;;;;8196058;29;20047;-86
2022/09/04 04:41:05;;;;;;;7.82;5.43;;;;;;;;;;8200532;29;20051;-85
2022/09/04 04:50:08;;;;;;;15.18;10.63;;;;;;;;;;8102391;29;20076;-86
2022/09/04 04:54:26;;;;;;;14.45;10.20;;;;;;;;;;8102149;29;20052;-86
2022/09/04 04:58:44;;;;;;;11.77;8.38;;;;;;;;;;8096418;29;20472;-86
2022/09/04 05:02:56;;;;;;;16.60;9.38;;;;;;;;;;8101759;29;20056;-85
2022/09/04 05:07:07;;;;;;;18.63;9.40;;;;;;;;;;8101774;29;20157;-87
2022/09/04 05:11:20;;;;;;;17.07;10.10;;;;;;;;;;8101928;29;20056;-86
2022/09/04 05:15:33;;;;;;;17.27;9.93;;;;;;;;;;8100153;29;20572;-86
2022/09/04 05:19:43;;;;;;;13.77;8.38;;;;;;;;;;8139637;29;20058;-86
2022/09/04 05:23:55;;;;;;;13.98;8.60;;;;;;;;;;8182561;29;20047;-86
2022/09/04 05:28:07;;;;;;;9.95;6.78;;;;;;;;;;8176389;29;20075;-87
2022/09/04 05:32:17;;;;;;;7.05;4.93;;;;;;;;;;8198853;29;20043;-86
2022/09/04 05:36:26;;;;;;;9.07;5.85;;;;;;;;;;8199497;29;20451;-86
2022/09/04 05:40:38;;;;;;;9.63;5.85;;;;;;;;;;8199334;29;20059;-86
2022/09/04 05:44:57;;;;;;;8.70;5.35;;;;;;;;;;8199317;29;20039;-86
2022/09/04 05:49:03;;;;;;;8.48;5.32;;;;;;;;;;8199566;29;20047;-88
2022/09/04 05:53:32;;;;;;;8.52;5.57;;;;;;;;;;8199397;29;20055;-86
2022/09/04 05:57:46;;;;;;;7.35;4.35;;;;;;;;;;8194410;29;20055;-87
2022/09/04 06:02:17;;;;;;;7.13;5.13;;;;;;;;;;8199215;29;20043;-87
2022/09/04 06:06:25;;;;;;;5.90;3.70;;;;;;;;;;8199198;29;20047;-87
2022/09/04 06:10:35;;;;;;;7.47;4.50;;;;;;;;;;8198236;29;20302;-87
2022/09/04 06:14:59;;;;;;;7.50;3.85;;;;;;;;;;8193857;29;20051;-86
2022/09/04 06:19:18;;;;;;;5.60;3.97;;;;;;;;;;8195726;29;20051;-87
2022/09/04 06:23:51;;;;;;;6.10;3.78;;;;;;;;;;8199325;29;20054;-86
2022/09/04 06:28:20;;;;;;;7.07;4.05;;;;;;;;;;8192225;28;20078;-86
2022/09/04 06:32:46;;;;;;;6.22;3.67;;;;;;;;;;8204521;29;20055;-87
2022/09/04 06:37:04;;;;;;;5.75;3.80;;;;;;;;;;8204101;29;20455;-87
2022/09/04 06:41:30;;;;;;;7.75;4.47;;;;;;;;;;8203694;29;20048;-88
2022/09/04 06:45:46;;;;;;;5.72;3.83;;;;;;;;;;8186835;29;20055;-88
2022/09/04 06:50:08;;;;;;;8.48;5.47;;;;;;;;;;8188970;29;20043;-88
2022/09/04 06:54:20;;;;;;;8.68;4.20;;;;;;;;;;8189902;29;20058;-87
2022/09/04 06:58:53;;;;;;;5.20;3.47;;;;;;;;;;8189023;28;20040;-88
2022/09/04 07:03:26;;;;;;;6.85;4.07;;;;;;;;;;8192023;29;20058;-88
2022/09/04 07:07:39;;;;;;;6.20;4.60;;;;;;;;;;8193444;29;20412;-87
2022/09/04 07:12:04;;;;;;;6.13;3.67;;;;;;;;;;8187182;29;20048;-88
2022/09/04 07:16:15;;;;;;;6.93;3.45;;;;;;;;;;8164892;29;20460;-87
2022/09/04 07:20:22;;;;;;;8.10;3.60;;;;;;;;;;8192390;29;20051;-88
2022/09/04 07:25:02;;;;;;;5.00;3.30;;;;;;;;;;8191858;29;20047;-88
2022/09/04 07:29:37;;;;;;;7.07;3.20;;;;;;;;;;8183317;29;20147;-87
2022/09/04 07:34:04;;;;;;;7.25;3.60;;;;;;;;;;8129026;28;20059;-88
2022/09/04 07:38:39;;;;;;;6.32;3.60;;;;;;;;;;8197305;29;20499;-88
2022/09/04 07:42:51;;;;;;;5.60;3.35;;;;;;;;;;8193567;29;20494;-87
2022/09/04 07:47:11;;;;;;;7.72;3.55;;;;;;;;;;8197584;28;20047;-89
2022/09/04 07:51:22;;;;;;;5.70;3.10;;;;;;;;;;8177792;29;20585;-86
2022/09/04 07:55:45;;;;;;;7.40;3.17;;;;;;;;;;8181230;29;20067;-87
2022/09/04 08:00:12;;;;;;;6.50;3.90;;;;;;;;;;8186453;29;20043;-87
2022/09/04 08:04:52;;;;;;;5.78;3.33;;;;;;;;;;8186346;29;20130;-87
2022/09/04 08:09:28;;;;;;;4.57;2.97;;;;;;;;;;8180375;29;20051;-86
2022/09/04 08:14:02;;;;;;;7.93;3.67;;;;;;;;;;8190593;29;20410;-86
2022/09/04 08:18:21;;;;;;;5.47;3.20;;;;;;;;;;8190262;29;20047;-88
2022/09/04 08:22:35;;;;;;;6.65;3.05;;;;;;;;;;8191229;29;21076;-88
2022/09/04 08:26:50;;;;;;;5.65;2.92;;;;;;;;;;8192341;28;20051;-88
2022/09/04 08:31:08;;;;;;;7.82;3.13;;;;;;;;;;8165360;29;20468;-88
2022/09/04 08:35:22;;;;;;;6.20;2.92;;;;;;;;;;8190418;29;20415;-87
2022/09/04 08:39:38;;;;;;;7.40;2.90;;;;;;;;;;8193393;29;20067;-87
2022/09/04 08:44:28;;;;;;;9.32;3.70;;;;;;;;;;8194256;29;20051;-88
2022/09/04 08:48:54;;;;;;;7.07;3.47;;;;;;;;;;8193870;28;20055;-87
2022/09/04 08:53:46;;;;;;;6.13;3.10;;;;;;;;;;8183013;28;20792;-87
2022/09/04 08:58:21;;;;;;;6.78;2.80;;;;;;;;;;8189083;28;20115;-87
2022/09/04 09:02:57;;;;;;;7.38;2.90;;;;;;;;;;8189936;28;20054;-87
2022/09/04 09:07:24;;;;;;;7.32;2.75;;;;;;;;;;8190182;28;20065;-87
2022/09/04 09:11:54;;;;;;;7.60;2.65;;;;;;;;;;8170031;29;20141;-87
2022/09/04 09:16:20;;;;;;;5.15;2.38;;;;;;;;;;8184321;28;20055;-87
2022/09/04 09:20:29;;;;;;;5.93;2.60;;;;;;;;;;8185826;28;20043;-86
2022/09/04 09:25:05;;;;;;;6.35;2.80;;;;;;;;;;8194573;28;20109;-89
2022/09/04 09:29:42;;;;;;;4.18;2.55;;;;;;;;;;8189588;29;20061;-89
2022/09/04 09:34:18;;;;;;;5.45;2.70;;;;;;;;;;8194400;29;20134;-88
2022/09/04 09:39:00;;;;;;;5.57;3.10;;;;;;;;;;8186684;29;20059;-87
2022/09/04 09:43:48;;;;;;;6.30;2.83;;;;;;;;;;8189057;29;20582;-87
2022/09/04 09:48:31;;;;;;;5.25;2.92;;;;;;;;;;8175736;29;20066;-88
2022/09/04 09:53:15;;;;;;;6.10;3.13;;;;;;;;;;8189729;29;20074;-87
2022/09/04 09:58:09;;;;;;;5.30;2.87;;;;;;;;;;8191215;29;20043;-88
2022/09/04 10:02:44;;;;;;;5.20;2.80;;;;;;;;;;8191178;28;20055;-87
2022/09/04 10:07:43;;;;;;;6.88;2.97;;;;;;;;;;8195774;29;20522;-88
2022/09/04 10:12:32;;;;;;;4.25;2.72;;;;;;;;;;8184541;29;20403;-87
2022/09/04 10:17:05;;;;;;;3.65;2.40;;;;;;;;;;8194667;29;20050;-88
2022/09/04 10:22:01;;;;;;;4.15;2.45;;;;;;;;;;8194830;29;20611;-87
2022/09/04 10:26:44;;;;;;;4.40;2.33;;;;;;;;;;8180005;28;20063;-87
2022/09/04 10:31:25;;;;;;;4.00;2.25;;;;;;;;;;8185647;28;20510;-89
2022/09/04 10:35:53;;;;;;;4.15;2.22;;;;;;;;;;8172794;29;20048;-88
2022/09/04 10:44:42;;;;;;;3.30;2.10;;;;;;;;;;8197400;28;20054;-87
2022/09/04 10:49:18;;;;;;;4.30;2.33;;;;;;;;;;8193420;28;20059;-87
2022/09/04 10:53:59;;;;;;;4.82;2.80;;;;;;;;;;8187066;29;20066;-87
2022/09/04 10:58:43;;;;;;;5.20;2.80;;;;;;;;;;8193456;28;20050;-87
2022/09/04 11:03:27;;;;;;;7.05;3.30;;;;;;;;;;8187914;28;20122;-87
2022/09/04 11:08:08;;;;;;;6.80;3.63;;;;;;;;;;8190922;29;20484;-87
2022/09/04 11:12:18;;;;;;;;;;;;;;;;;;8167429;29;20059;-87
2022/09/04 11:21:19;;;;;;;8.98;2.80;;;;;;;;;;8182002;29;20063;-86
2022/09/04 11:26:04;;;;;;;4.82;2.88;;;;;;;;;;8180367;29;20436;-88
2022/09/04 11:30:16;;;;;;;4.38;2.40;;;;;;;;;;8198249;29;20443;-86
2022/09/04 11:34:51;;;;;;;4.80;2.70;;;;;;;;;;8200416;29;20058;-86
2022/09/04 11:39:20;;;;;;;4.45;2.50;;;;;;;;;;8193666;29;20124;-86
2022/09/04 11:43:53;;;;;;;5.15;2.58;;;;;;;;;;8201478;29;20051;-86
2022/09/04 11:48:49;;;;;;;2.40;1.75;;;;;;;;;;8195973;29;20063;-86
2022/09/04 11:53:11;;;;;;;4.75;1.80;;;;;;;;;;8141006;29;20059;-86
2022/09/04 11:57:29;;;;;;;3.25;2.20;;;;;;;;;;8201837;29;20125;-86
2022/09/04 12:02:18;;;;;;;4.28;2.17;;;;;;;;;;8201956;29;20047;-86
2022/09/04 12:06:33;;;;;;;2.78;2.10;;;;;;;;;;8184792;29;20066;-86
2022/09/04 12:10:54;;;;;;;3.03;1.80;;;;;;;;;;8201472;29;20043;-86
2022/09/04 12:15:34;;;;;;;2.47;2.03;;;;;;;;;;8198950;29;20047;-86
2022/09/04 12:20:23;;;;;;;3.83;2.63;;;;;;;;;;8147246;29;20376;-86
2022/09/04 12:24:57;;;;;;;5.18;2.20;;;;;;;;;;8201531;29;20507;-87
2022/09/04 12:29:37;;;;;;;3.97;2.50;;;;;;;;;;8200962;29;20047;-87
2022/09/04 12:34:09;;;;;;;4.72;2.60;;;;;;;;;;8185101;29;20039;-87
2022/09/04 12:38:33;;;;;;;5.80;3.25;;;;;;;;;;8187509;29;20593;-87
2022/09/04 12:42:41;;;;;;;3.47;2.42;;;;;;;;;;8193045;29;20047;-87
2022/09/04 12:47:14;;;;;;;3.83;2.50;;;;;;;;;;8195437;29;20126;-88
2022/09/04 12:51:34;;;;;;;3.42;2.97;;;;;;;;;;8191700;28;20072;-88
2022/09/04 12:55:57;;;;;;;10.32;6.25;;;;;;;;;;8191526;29;20051;-88
2022/09/04 13:00:09;;;;;;;4.50;2.63;;;;;;;;;;8184485;29;20074;-87
2022/09/04 13:04:21;;;;;;;3.70;2.42;;;;;;;;;;8187315;28;20407;-87
2022/09/04 13:08:33;;;;;;;3.42;2.20;;;;;;;;;;8184636;29;20054;-87
2022/09/04 13:12:45;;;;;;;5.20;2.42;;;;;;;;;;8183448;29;20051;-87
2022/09/04 13:17:13;;;;;;;3.55;2.60;;;;;;;;;;8189085;28;20054;-88
2022/09/04 13:36:52;;;;;;;4.32;2.80;;;;;;;;;;8176772;28;20098;-86
2022/09/04 13:46:35;;;;;;;5.55;2.78;;;;;;;;;;8170250;28;20051;-86
2022/09/04 13:50:47;;;;;;;2.78;2.25;;;;;;;;;;8176483;28;20056;-86
2022/09/04 13:54:56;;;;;;;;;;;;;;;;;;8184713;28;20138;-87
2022/09/04 13:59:27;;;;;;;4.22;2.08;;;;;;;;;;8182173;29;19973;-87
2022/09/04 14:04:13;;;;;;;4.15;2.58;;;;;;;;;;8173276;28;20133;-88
2022/09/04 14:18:11;;;;;;;6.78;3.95;;;;;;;;;;8253181;23;20410;-87
2022/09/04 14:22:41;;;;;;;5.28;2.58;;;;;;;;;;8227593;28;20407;-86
2022/09/04 14:26:54;;;;;;;2.67;1.90;;;;;;;;;;8231807;28;20146;-87
2022/09/04 14:31:12;;;;;;;4.93;2.30;;;;;;;;;;8231155;28;20373;-86
2022/09/04 14:45:02;;;;;;;7.95;4.32;;;;;;;;;;8082353;29;20079;-87
2022/09/04 14:49:11;;;;;;;3.25;2.20;;;;;;;;;;8120373;29;20059;-86
2022/09/04 14:53:36;;;;;;;4.40;2.40;;;;;;;;;;8117032;29;20501;-87
2022/09/04 14:57:45;;;;;;;5.93;3.13;;;;;;;;;;8125105;29;20116;-88
2022/09/04 15:02:21;;;;;;;5.07;3.50;;;;;;;;;;8123972;29;20094;-86
2022/09/04 15:06:29;;;;;;;5.97;3.22;;;;;;;;;;8121446;29;20057;-86
2022/09/04 15:10:48;;;;;;;9.00;3.10;;;;;;;;;;8113419;29;20067;-84
2022/09/04 15:14:55;;;;;;;4.78;3.05;;;;;;;;;;8124945;29;20056;-85
2022/09/04 15:19:07;;;;;;;18.58;8.13;;;;;;;;;;8116174;29;20048;-85
2022/09/04 15:23:18;;;;;;;6.13;3.50;;;;;;;;;;8121003;29;20064;-86
2022/09/04 15:27:27;;;;;;;4.88;3.10;;;;;;;;;;8133720;29;20128;-87
2022/09/04 15:31:33;;;;;;;3.88;2.85;;;;;;;;;;8117461;29;20406;-87
2022/09/04 15:35:39;;;;;;;5.60;2.70;;;;;;;;;;8131828;29;20153;-87
2022/09/04 15:39:52;;;;;;;6.13;4.07;;;;;;;;;;8117956;29;20048;-87
2022/09/04 15:44:01;;;;;;;4.13;3.33;;;;;;;;;;8119448;29;20052;-87
2022/09/04 15:48:24;;;;;;;5.10;3.30;;;;;;;;;;8119096;29;20044;-87
2022/09/04 15:52:38;;;;;;;8.43;3.22;;;;;;;;;;8127126;29;20040;-88
2022/09/04 15:56:45;;;;;;;4.97;3.28;;;;;;;;;;8129203;29;20036;-88
2022/09/04 16:01:12;;;;;;;5.93;3.53;;;;;;;;;;8113483;29;20698;-88
2022/09/04 16:05:21;;;;;;;4.93;3.72;;;;;;;;;;8113042;29;20099;-87
2022/09/04 16:09:33;;;;;;;7.38;3.97;;;;;;;;;;8113326;29;20060;-87
2022/09/04 16:13:45;;;;;;;5.90;4.63;;;;;;;;;;8115383;29;20071;-87
2022/09/04 16:17:49;;;;;;;;;;;;;;;;;;8105864;29;20072;-88
2022/09/04 16:22:03;;;;;;;8.30;5.13;;;;;;;;;;8107275;29;19966;-87
2022/09/04 16:26:12;;;;;;;6.70;4.90;;;;;;;;;;8115586;29;20115;-88
2022/09/04 16:30:31;;;;;;;7.38;5.45;;;;;;;;;;8115180;29;20147;-88
2022/09/04 16:34:39;;;;;;;7.28;5.07;;;;;;;;;;8112606;29;20131;-88
2022/09/04 16:38:46;;;;;;;7.22;5.85;;;;;;;;;;8112027;29;20060;-88
2022/09/04 16:42:54;;;;;;;7.95;5.55;;;;;;;;;;8108653;29;20103;-88
2022/09/04 16:47:09;;;;;;;9.52;7.40;;;;;;;;;;8117677;29;20076;-87
2022/09/04 16:51:34;;;;;;;35.35;26.88;;;;;;;;;;8107018;29;20072;-86
2022/09/04 16:56:06;;;;;;;42.03;30.65;;;;;;;;;;8116603;29;20048;-88
2022/09/04 17:00:13;;;;;;;21.42;16.95;;;;;;;;;;8116158;29;20052;-86
2022/09/04 17:04:29;;;;;;;20.95;16.77;;;;;;;;;;8125073;29;20063;-86
2022/09/04 17:08:38;;;;;;;30.40;21.67;;;;;;;;;;8112054;29;20596;-86
2022/09/04 17:12:48;;;;;;;51.63;36.67;;;;;;;;;;8089635;29;20458;-88
2022/09/04 17:17:03;;;;;;;103.32;61.78;;;;;;;;;;8107386;29;20075;-88
2022/09/04 17:25:40;;;;;;;87.00;52.13;;;;;;;;;;8124802;29;20415;-89
2022/09/04 17:29:49;;;;;;;48.80;29.05;;;;;;;;;;8111698;29;20055;-87
2022/09/04 17:33:58;;;;;;;13.25;9.27;;;;;;;;;;8115692;29;20048;-86
2022/09/04 17:38:11;;;;;;;9.25;7.50;;;;;;;;;;8119976;29;20083;-87
2022/09/04 17:42:15;;;;;;;;;;;;;;;;;;8116092;29;20076;-88
2022/09/04 17:46:26;;;;;;;144.25;50.90;;;;;;;;;;8118188;29;20371;-87
2022/09/04 17:50:30;;;;;;;40.30;25.10;;;;;;;;;;8103190;29;20092;-87
2022/09/04 17:54:47;;;;;;;24.10;17.05;;;;;;;;;;8103109;29;20053;-87
2022/09/04 17:59:05;;;;;;;62.30;31.27;;;;;;;;;;8108722;29;20044;-88
2022/09/04 18:03:32;;;;;;;84.25;38.80;;;;;;;;;;8112152;29;20142;-88
2022/09/04 18:07:53;;;;;;;21.27;15.52;;;;;;;;;;8116283;29;20055;-87
2022/09/04 18:12:30;;;;;;;23.13;17.00;;;;;;;;;;8105117;29;20508;-87
2022/09/04 18:17:09;;;;;;;16.45;12.38;;;;;;;;;;8115443;29;20134;-87
2022/09/04 18:21:43;;;;;;;19.35;14.65;;;;;;;;;;8107522;29;20051;-88
2022/09/04 18:26:09;;;;;;;33.42;22.55;;;;;;;;;;8111251;29;20612;-87
2022/09/04 18:30:22;;;;;;;83.30;41.80;;;;;;;;;;8108811;29;20059;-88
2022/09/04 18:34:37;;;;;;;33.70;21.55;;;;;;;;;;8126767;29;20547;-87
2022/09/04 18:39:04;;;;;;;24.15;15.38;;;;;;;;;;8118780;29;20413;-88
2022/09/04 18:43:25;;;;;;;36.60;24.75;;;;;;;;;;8118299;29;20095;-87
2022/09/04 18:47:48;;;;;;;45.65;29.45;;;;;;;;;;8118188;29;20040;-87
2022/09/04 18:51:56;;;;;;;22.95;15.07;;;;;;;;;;8126285;29;20492;-87
2022/09/04 18:56:05;;;;;;;15.48;12.63;;;;;;;;;;8111760;29;20048;-86
2022/09/04 19:00:13;;;;;;;76.65;47.60;;;;;;;;;;8109596;29;20112;-87
2022/09/04 19:04:51;;;;;;;25.00;16.48;;;;;;;;;;8133513;29;20059;-86
2022/09/04 19:08:58;;;;;;;18.00;12.57;;;;;;;;;;8120945;29;20100;-88
2022/09/04 19:13:07;;;;;;;20.38;13.10;;;;;;;;;;8133806;29;20533;-86
2022/09/04 19:17:16;;;;;;;21.70;13.63;;;;;;;;;;8116975;29;20489;-85
2022/09/04 19:21:30;;;;;;;23.90;16.38;;;;;;;;;;8122853;29;20076;-87
2022/09/04 19:25:36;;;;;;;24.85;15.57;;;;;;;;;;8116958;29;20066;-87
2022/09/04 19:29:45;;;;;;;77.55;37.53;;;;;;;;;;8112987;29;20131;-85
2022/09/04 19:33:53;;;;;;;77.57;37.13;;;;;;;;;;8110682;29;20047;-85
2022/09/04 19:38:00;;;;;;;45.08;24.67;;;;;;;;;;8109299;29;20075;-84
2022/09/04 19:42:11;;;;;;;54.70;31.02;;;;;;;;;;8121933;29;20056;-85
2022/09/04 19:46:32;;;;;;;33.28;20.60;;;;;;;;;;8116564;29;20481;-85
2022/09/04 19:50:39;;;;;;;30.83;20.27;;;;;;;;;;8113862;29;20059;-85
2022/09/04 19:54:48;;;;;;;25.02;17.23;;;;;;;;;;8112263;29;20518;-85
2022/09/04 19:58:55;;;;;;;20.08;13.90;;;;;;;;;;8126291;29;20135;-85
2022/09/04 20:03:04;;;;;;;29.50;18.25;;;;;;;;;;8119671;29;20485;-85
2022/09/04 20:07:12;;;;;;;26.65;18.60;;;;;;;;;;8129124;29;20040;-84
2022/09/04 20:11:18;;;;;;;22.73;15.90;;;;;;;;;;8117360;29;20405;-86
2022/09/04 20:15:24;;;;;;;22.70;15.98;;;;;;;;;;8118319;29;20099;-86
2022/09/04 20:19:37;;;;;;;21.60;12.60;;;;;;;;;;8116490;29;20123;-85
2022/09/04 20:23:48;;;;;;;18.15;12.35;;;;;;;;;;8117250;29;20051;-87
2022/09/04 20:27:55;;;;;;;20.77;12.98;;;;;;;;;;8111827;29;20059;-86
2022/09/04 20:32:02;;;;;;;19.25;13.20;;;;;;;;;;8110104;29;20124;-88
2022/09/04 20:36:08;;;;;;;17.65;12.75;;;;;;;;;;8119165;29;20071;-86
2022/09/04 20:40:21;;;;;;;20.08;12.73;;;;;;;;;;8117909;29;20541;-86
2022/09/04 20:44:32;;;;;;;19.25;11.55;;;;;;;;;;8123055;29;20382;-87
2022/09/04 20:48:45;;;;;;;20.40;13.13;;;;;;;;;;8112344;29;20052;-86
2022/09/04 20:52:56;;;;;;;21.75;13.65;;;;;;;;;;8110411;29;20044;-86
2022/09/04 20:57:09;;;;;;;23.10;13.77;;;;;;;;;;8108328;29;20548;-86
2022/09/04 21:01:17;;;;;;;22.10;13.77;;;;;;;;;;8117289;29;20299;-85
2022/09/04 21:05:40;;;;;;;17.95;11.45;;;;;;;;;;8116663;29;20095;-86
2022/09/04 21:09:54;;;;;;;16.80;11.63;;;;;;;;;;8117891;29;20445;-86
2022/09/04 21:14:01;;;;;;;19.50;12.93;;;;;;;;;;8125906;29;20048;-87
2022/09/04 21:18:19;;;;;;;23.58;13.38;;;;;;;;;;8115143;29;20124;-86
2022/09/04 21:22:43;;;;;;;19.65;12.07;;;;;;;;;;8120178;29;20055;-85
2022/09/04 21:27:21;;;;;;;21.00;12.88;;;;;;;;;;8111380;29;20116;-85
2022/09/04 21:31:47;;;;;;;19.02;12.63;;;;;;;;;;8111780;29;20141;-85
2022/09/04 21:35:56;;;;;;;19.63;12.48;;;;;;;;;;8117903;29;20489;-85
2022/09/04 21:40:26;;;;;;;13.98;9.93;;;;;;;;;;8116880;29;20052;-86
2022/09/04 21:44:47;;;;;;;16.77;10.70;;;;;;;;;;8121675;29;20044;-86
2022/09/04 21:49:22;;;;;;;18.13;11.45;;;;;;;;;;8112007;29;20261;-86
2022/09/04 21:54:05;;;;;;;20.77;11.80;;;;;;;;;;8113015;29;20049;-85
2022/09/04 21:58:45;;;;;;;19.38;11.80;;;;;;;;;;8112427;29;20059;-86
2022/09/04 22:02:57;;;;;;;18.23;12.25;;;;;;;;;;8126439;29;20048;-86
2022/09/04 22:07:11;;;;;;;23.98;12.40;;;;;;;;;;8121693;29;20068;-85
2022/09/04 22:11:31;;;;;;;21.98;13.02;;;;;;;;;;8120470;29;20396;-86
2022/09/04 22:15:47;;;;;;;19.13;12.27;;;;;;;;;;8120211;29;20404;-86
2022/09/04 22:20:30;;;;;;;22.38;13.43;;;;;;;;;;8119252;29;20052;-86
2022/09/04 22:24:47;;;;;;;;;;;;;;;;;;8116030;29;20052;-86
2022/09/04 22:29:17;;;;;;;16.73;10.82;;;;;;;;;;8114246;29;19928;-86
2022/09/04 22:33:47;;;;;;;17.58;10.75;;;;;;;;;;8117192;29;20056;-86
2022/09/04 22:38:31;;;;;;;13.88;9.88;;;;;;;;;;8127786;29;20505;-85
2022/09/04 22:42:48;;;;;;;19.48;11.25;;;;;;;;;;8084188;29;20060;-86
2022/09/04 22:47:26;;;;;;;12.77;8.77;;;;;;;;;;8119073;29;20481;-87
2022/09/04 22:51:43;;;;;;;13.07;8.98;;;;;;;;;;8127861;29;20048;-86
2022/09/04 22:55:55;;;;;;;14.25;9.40;;;;;;;;;;8119755;29;20112;-85
2022/09/04 23:00:11;;;;;;;16.42;10.38;;;;;;;;;;8125134;29;20052;-87
2022/09/04 23:04:32;;;;;;;18.75;11.40;;;;;;;;;;8117881;29;20045;-86
2022/09/04 23:08:55;;;;;;;16.27;9.55;;;;;;;;;;8126153;29;20377;-86
2022/09/04 23:13:28;;;;;;;14.23;9.43;;;;;;;;;;8112812;29;20049;-86
2022/09/04 23:17:52;;;;;;;15.30;8.95;;;;;;;;;;8112294;29;20064;-86
2022/09/04 23:22:06;;;;;;;13.65;8.82;;;;;;;;;;8109517;29;20059;-86
2022/09/04 23:26:34;;;;;;;17.15;10.88;;;;;;;;;;8128388;29;20473;-86
2022/09/04 23:30:47;;;;;;;21.85;11.45;;;;;;;;;;8130309;29;20063;-85
2022/09/04 23:35:02;;;;;;;;;;;;;;;;;;8115672;29;20045;-85
2022/09/04 23:39:37;;;;;;;14.50;9.85;;;;;;;;;;8114116;29;19974;-87
2022/09/04 23:44:44;;;;;;;19.17;10.55;;;;;;;;;;8133049;29;20557;-86
2022/09/04 23:49:42;;;;;;;18.50;10.20;;;;;;;;;;8067939;29;20084;-85
2022/09/04 23:54:30;;;;;;;17.65;8.98;;;;;;;;;;8060029;29;20105;-85
